Time;durP1;ratioP1;P1;durP2;ratioP2;P2;SDS_P1;SDS_P2;PMS_P1;PMS_P2;Temp;Humidity;BMP_temperature;BMP_pressure;BME280_temperature;BME280_humidity;BME280_pressure;Samples;Min_cycle;Max_cycle;Signal;HPM_P1;HPM_P2
2022/10/13 00:01:58;;;;;;;41.67;22.20;;;;;;;;;;741735;186;820323;-63
2022/10/13 00:04:24;;;;;;;38.13;24.47;;;;;;;;;;747366;186;814583;-59
2022/10/13 00:06:49;;;;;;;40.53;24.50;;;;;;;;;;741448;184;918590;-60
2022/10/13 00:09:15;;;;;;;38.07;23.30;;;;;;;;;;743365;186;917193;-60
2022/10/13 00:11:41;;;;;;;36.03;23.67;;;;;;;;;;747663;187;901388;-60
2022/10/13 00:14:07;;;;;;;37.27;23.50;;;;;;;;;;744628;187;815585;-58
2022/10/13 00:16:33;;;;;;;26.80;20.58;;;;;;;;;;744644;186;914500;-63
2022/10/13 00:18:59;;;;;;;30.13;22.23;;;;;;;;;;748211;187;721217;-63
2022/10/13 00:21:25;;;;;;;31.80;22.73;;;;;;;;;;740561;184;914765;-64
2022/10/13 00:23:50;;;;;;;32.80;21.53;;;;;;;;;;741557;185;946606;-64
2022/10/13 00:26:16;;;;;;;42.70;23.13;;;;;;;;;;743106;186;921450;-63
2022/10/13 00:28:42;;;;;;;31.48;22.37;;;;;;;;;;745021;185;870206;-66
2022/10/13 00:31:13;;;;;;;41.90;22.40;;;;;;;;;;742907;185;918804;-65
2022/10/13 00:33:39;;;;;;;39.70;23.83;;;;;;;;;;740486;186;924258;-63
2022/10/13 00:36:05;;;;;;;30.77;21.10;;;;;;;;;;746593;187;920965;-59
2022/10/13 00:38:31;;;;;;;33.57;21.30;;;;;;;;;;744904;186;917899;-64
2022/10/13 00:40:57;;;;;;;28.30;21.97;;;;;;;;;;743884;187;918795;-60
2022/10/13 00:43:22;;;;;;;33.30;21.20;;;;;;;;;;750162;186;614954;-63
2022/10/13 00:45:49;;;;;;;31.97;21.93;;;;;;;;;;748050;184;915376;-60
2022/10/13 00:48:15;;;;;;;37.60;22.80;;;;;;;;;;740030;187;917376;-59
2022/10/13 00:50:41;;;;;;;36.43;21.60;;;;;;;;;;743789;186;920270;-63
2022/10/13 00:53:07;;;;;;;33.75;20.45;;;;;;;;;;747044;187;816916;-58
2022/10/13 00:55:32;;;;;;;35.23;21.13;;;;;;;;;;743184;187;817558;-63
2022/10/13 00:58:00;;;;;;;34.70;24.80;;;;;;;;;;743116;186;918271;-60
2022/10/13 01:00:24;;;;;;;38.80;21.07;;;;;;;;;;748938;184;917979;-63
2022/10/13 01:02:50;;;;;;;28.37;19.23;;;;;;;;;;745543;186;913855;-63
2022/10/13 01:05:16;;;;;;;37.53;23.30;;;;;;;;;;744654;185;918181;-59
2022/10/13 01:07:43;;;;;;;38.70;22.40;;;;;;;;;;746139;187;916679;-58
2022/10/13 01:10:08;;;;;;;34.20;21.50;;;;;;;;;;742713;184;918663;-62
2022/10/13 01:12:35;;;;;;;28.90;20.80;;;;;;;;;;742386;186;813865;-59
2022/10/13 01:15:10;;;;;;;27.17;20.80;;;;;;;;;;742937;186;914781;-60
2022/10/13 01:17:36;;;;;;;31.90;20.60;;;;;;;;;;746942;185;929990;-60
2022/10/13 01:20:08;;;;;;;29.27;21.97;;;;;;;;;;744565;186;918965;-60
2022/10/13 01:22:35;;;;;;;36.70;23.43;;;;;;;;;;742066;186;918650;-64
2022/10/13 01:25:05;;;;;;;32.23;20.93;;;;;;;;;;740823;186;918573;-60
2022/10/13 01:27:36;;;;;;;32.73;21.60;;;;;;;;;;746590;187;815843;-62
2022/10/13 01:30:04;;;;;;;28.30;18.87;;;;;;;;;;743936;186;913788;-59
2022/10/13 01:32:46;;;;;;;30.40;20.50;;;;;;;;;;741893;184;834850;-59
2022/10/13 01:35:13;;;;;;;27.77;19.90;;;;;;;;;;740521;186;918612;-60
2022/10/13 01:37:43;;;;;;;29.67;19.33;;;;;;;;;;740925;185;915992;-61
2022/10/13 01:40:09;;;;;;;26.93;18.43;;;;;;;;;;747635;184;811416;-61
2022/10/13 01:42:35;;;;;;;35.03;20.70;;;;;;;;;;744796;186;924481;-60
2022/10/13 01:45:01;;;;;;;31.60;17.77;;;;;;;;;;741002;187;897403;-63
2022/10/13 01:47:27;;;;;;;27.97;19.73;;;;;;;;;;742417;185;872684;-64
2022/10/13 01:49:53;;;;;;;26.33;17.40;;;;;;;;;;746617;185;819626;-60
2022/10/13 01:52:19;;;;;;;28.38;17.65;;;;;;;;;;741437;182;924416;-66
2022/10/13 01:54:49;;;;;;;33.27;17.77;;;;;;;;;;742724;184;930704;-60
2022/10/13 01:57:21;;;;;;;23.50;16.93;;;;;;;;;;746315;186;918622;-64
2022/10/13 01:59:47;;;;;;;26.20;17.07;;;;;;;;;;743606;187;920560;-65
2022/10/13 02:02:13;;;;;;;33.40;18.53;;;;;;;;;;741380;186;916041;-65
2022/10/13 02:04:40;;;;;;;22.10;16.02;;;;;;;;;;740287;186;917394;-64
2022/10/13 02:07:06;;;;;;;24.30;15.93;;;;;;;;;;749795;185;918610;-61
2022/10/13 02:09:47;;;;;;;21.80;16.50;;;;;;;;;;748262;184;713971;-64
2022/10/13 02:12:14;;;;;;;23.20;15.70;;;;;;;;;;746391;185;816524;-59
2022/10/13 02:14:40;;;;;;;22.60;16.00;;;;;;;;;;742829;185;919010;-63
2022/10/13 02:17:06;;;;;;;24.40;16.20;;;;;;;;;;747215;185;920325;-63
2022/10/13 02:19:32;;;;;;;22.90;17.13;;;;;;;;;;740530;186;922281;-64
2022/10/13 02:21:58;;;;;;;26.03;16.90;;;;;;;;;;743208;187;816187;-60
2022/10/13 02:24:23;;;;;;;25.90;15.60;;;;;;;;;;744138;186;914802;-63
2022/10/13 02:26:49;;;;;;;20.77;15.60;;;;;;;;;;749479;185;833776;-63
2022/10/13 02:29:15;;;;;;;25.50;16.17;;;;;;;;;;742147;187;923633;-64
2022/10/13 02:31:41;;;;;;;22.35;15.93;;;;;;;;;;743067;186;918220;-64
2022/10/13 02:34:07;;;;;;;24.00;15.60;;;;;;;;;;746961;186;917984;-63
2022/10/13 02:36:33;;;;;;;24.63;16.50;;;;;;;;;;743900;186;820969;-64
2022/10/13 02:38:59;;;;;;;26.60;16.60;;;;;;;;;;744071;186;916996;-63
2022/10/13 02:41:24;;;;;;;26.20;15.00;;;;;;;;;;748517;184;815977;-63
2022/10/13 02:43:50;;;;;;;24.17;17.07;;;;;;;;;;741372;187;923683;-64
2022/10/13 02:46:16;;;;;;;25.17;15.87;;;;;;;;;;740622;186;918631;-64
2022/10/13 02:48:42;;;;;;;24.50;14.32;;;;;;;;;;742822;186;922351;-64
2022/10/13 02:51:08;;;;;;;27.70;16.83;;;;;;;;;;744194;188;917904;-60
2022/10/13 02:53:34;;;;;;;24.13;16.50;;;;;;;;;;736969;186;918627;-64
2022/10/13 02:56:00;;;;;;;24.87;15.30;;;;;;;;;;739991;187;919366;-60
2022/10/13 02:58:26;;;;;;;21.17;16.03;;;;;;;;;;748712;186;783054;-61
2022/10/13 03:00:51;;;;;;;21.67;15.73;;;;;;;;;;739023;187;925686;-64
2022/10/13 03:03:17;;;;;;;31.23;16.40;;;;;;;;;;740737;187;926191;-64
2022/10/13 03:05:43;;;;;;;19.47;14.93;;;;;;;;;;747062;187;919604;-60
2022/10/13 03:08:09;;;;;;;30.40;16.12;;;;;;;;;;742235;184;920603;-64
2022/10/13 03:10:35;;;;;;;27.23;15.53;;;;;;;;;;744155;187;818484;-60
2022/10/13 03:13:01;;;;;;;26.07;14.33;;;;;;;;;;747929;186;709473;-60
2022/10/13 03:15:26;;;;;;;24.87;16.63;;;;;;;;;;741610;186;887395;-61
2022/10/13 03:17:52;;;;;;;23.83;15.33;;;;;;;;;;740913;187;921745;-60
2022/10/13 03:20:18;;;;;;;22.13;15.80;;;;;;;;;;745257;184;816171;-60
2022/10/13 03:22:44;;;;;;;21.10;14.60;;;;;;;;;;748418;186;915012;-64
2022/10/13 03:25:10;;;;;;;21.87;16.27;;;;;;;;;;743380;186;915484;-64
2022/10/13 03:27:36;;;;;;;26.10;15.93;;;;;;;;;;743637;186;886081;-64
2022/10/13 03:30:02;;;;;;;25.97;15.80;;;;;;;;;;749066;186;816022;-61
2022/10/13 03:32:27;;;;;;;23.55;16.12;;;;;;;;;;743413;187;918537;-61
2022/10/13 03:34:53;;;;;;;20.40;15.87;;;;;;;;;;744300;186;919311;-59
2022/10/13 03:37:19;;;;;;;25.00;15.77;;;;;;;;;;745524;186;918476;-60
2022/10/13 03:39:45;;;;;;;22.93;15.87;;;;;;;;;;742227;186;826653;-64
2022/10/13 03:42:11;;;;;;;22.67;15.90;;;;;;;;;;744331;186;881919;-61
2022/10/13 03:44:37;;;;;;;27.17;17.07;;;;;;;;;;743938;186;921198;-64
2022/10/13 03:47:03;;;;;;;22.10;15.63;;;;;;;;;;746328;185;866507;-64
2022/10/13 03:49:28;;;;;;;24.20;16.23;;;;;;;;;;743355;186;920315;-64
2022/10/13 03:51:54;;;;;;;25.30;16.17;;;;;;;;;;740812;185;918588;-64
2022/10/13 03:54:20;;;;;;;25.90;15.47;;;;;;;;;;749914;184;816731;-65
2022/10/13 03:56:46;;;;;;;27.07;17.07;;;;;;;;;;742236;187;913239;-61
2022/10/13 03:59:12;;;;;;;21.23;14.57;;;;;;;;;;742256;186;918787;-60
2022/10/13 04:01:38;;;;;;;22.23;13.80;;;;;;;;;;747575;185;816056;-62
2022/10/13 04:04:04;;;;;;;25.30;14.93;;;;;;;;;;740589;185;919488;-63
2022/10/13 04:06:30;;;;;;;24.40;15.33;;;;;;;;;;743495;186;831122;-64
2022/10/13 04:08:56;;;;;;;20.83;14.15;;;;;;;;;;746058;186;822107;-60
2022/10/13 04:11:22;;;;;;;20.37;13.93;;;;;;;;;;745679;184;812361;-63
2022/10/13 04:13:47;;;;;;;20.20;15.47;;;;;;;;;;742737;187;815819;-64
2022/10/13 04:16:14;;;;;;;24.70;15.40;;;;;;;;;;741848;184;819989;-59
2022/10/13 04:18:40;;;;;;;22.80;15.17;;;;;;;;;;748047;187;861173;-60
2022/10/13 04:21:06;;;;;;;25.63;14.40;;;;;;;;;;743665;186;913489;-61
2022/10/13 04:23:32;;;;;;;25.03;16.57;;;;;;;;;;742477;186;874951;-64
2022/10/13 04:25:58;;;;;;;21.53;14.63;;;;;;;;;;746696;187;921222;-64
2022/10/13 04:28:24;;;;;;;20.87;15.50;;;;;;;;;;743682;186;918426;-64
2022/10/13 04:30:50;;;;;;;20.17;15.00;;;;;;;;;;743258;186;918087;-61
2022/10/13 04:33:16;;;;;;;24.17;16.15;;;;;;;;;;744640;185;919266;-61
2022/10/13 04:35:42;;;;;;;30.20;15.60;;;;;;;;;;745992;186;915646;-59
2022/10/13 04:38:07;;;;;;;22.70;15.27;;;;;;;;;;743074;186;821609;-59
2022/10/13 04:40:33;;;;;;;32.00;21.57;;;;;;;;;;744786;185;918594;-60
2022/10/13 04:42:59;;;;;;;36.17;28.60;;;;;;;;;;751288;186;809417;-64
2022/10/13 04:45:25;;;;;;;28.63;18.00;;;;;;;;;;743876;186;815088;-64
2022/10/13 04:47:51;;;;;;;26.23;15.90;;;;;;;;;;743495;186;821351;-65
2022/10/13 04:50:18;;;;;;;22.77;16.17;;;;;;;;;;749214;185;824633;-64
2022/10/13 04:52:44;;;;;;;21.10;15.33;;;;;;;;;;745768;186;626630;-65
2022/10/13 04:55:10;;;;;;;26.75;20.77;;;;;;;;;;744652;184;842488;-65
2022/10/13 04:57:36;;;;;;;35.90;23.20;;;;;;;;;;746544;186;813943;-64
2022/10/13 05:00:02;;;;;;;43.27;30.67;;;;;;;;;;748472;186;615036;-63
2022/10/13 05:02:28;;;;;;;106.13;68.63;;;;;;;;;;744245;186;715386;-63
2022/10/13 05:04:53;;;;;;;32.47;20.13;;;;;;;;;;742467;186;819186;-64
2022/10/13 05:07:19;;;;;;;32.07;18.10;;;;;;;;;;747509;187;916416;-64
2022/10/13 05:09:45;;;;;;;42.13;30.63;;;;;;;;;;742373;187;907656;-63
2022/10/13 05:12:11;;;;;;;45.67;33.07;;;;;;;;;;742418;186;917240;-60
2022/10/13 05:14:37;;;;;;;42.00;27.07;;;;;;;;;;745903;186;806572;-58
2022/10/13 05:17:03;;;;;;;49.50;33.70;;;;;;;;;;742030;185;915203;-63
2022/10/13 05:19:28;;;;;;;32.50;19.20;;;;;;;;;;744121;186;911310;-62
2022/10/13 05:21:55;;;;;;;31.48;24.05;;;;;;;;;;746363;186;817941;-60
2022/10/13 05:24:29;;;;;;;25.83;14.73;;;;;;;;;;742428;186;815743;-63
2022/10/13 05:26:47;;;;;;;23.10;14.00;;;;;;;;;;740070;185;918065;-63
2022/10/13 05:29:13;;;;;;;39.60;33.77;;;;;;;;;;742764;187;795431;-62
2022/10/13 05:31:39;;;;;;;25.20;17.60;;;;;;;;;;749051;187;918785;-63
2022/10/13 05:34:05;;;;;;;23.80;14.87;;;;;;;;;;743751;186;918544;-63
2022/10/13 05:36:31;;;;;;;22.60;15.30;;;;;;;;;;742274;187;917270;-63
2022/10/13 05:38:58;;;;;;;29.00;16.87;;;;;;;;;;747036;186;941772;-64
2022/10/13 05:41:24;;;;;;;23.73;16.07;;;;;;;;;;743797;185;919114;-60
2022/10/13 05:43:50;;;;;;;22.43;15.83;;;;;;;;;;743733;185;923259;-62
2022/10/13 05:46:15;;;;;;;21.17;15.37;;;;;;;;;;748455;186;924386;-60
2022/10/13 05:48:41;;;;;;;24.30;15.67;;;;;;;;;;743036;186;914821;-64
2022/10/13 05:51:07;;;;;;;25.30;16.17;;;;;;;;;;743024;187;919242;-62
2022/10/13 05:53:33;;;;;;;22.40;15.53;;;;;;;;;;744209;186;921952;-60
2022/10/13 05:56:04;;;;;;;25.55;16.75;;;;;;;;;;750887;186;712623;-60
2022/10/13 05:58:25;;;;;;;21.30;14.70;;;;;;;;;;746590;186;914097;-63
2022/10/13 06:00:51;;;;;;;31.60;15.87;;;;;;;;;;745835;186;914808;-60
2022/10/13 06:03:16;;;;;;;21.07;15.63;;;;;;;;;;744608;187;918874;-62
2022/10/13 06:05:44;;;;;;;51.80;32.80;;;;;;;;;;742575;187;916307;-62
2022/10/13 06:08:08;;;;;;;41.20;33.33;;;;;;;;;;741870;185;917323;-60
2022/10/13 06:10:34;;;;;;;25.80;15.90;;;;;;;;;;747052;187;912602;-60
2022/10/13 06:13:00;;;;;;;29.83;20.47;;;;;;;;;;741208;185;922498;-63
2022/10/13 06:15:26;;;;;;;23.47;14.63;;;;;;;;;;742155;187;918986;-59
2022/10/13 06:17:51;;;;;;;22.30;15.90;;;;;;;;;;746155;186;639119;-60
2022/10/13 06:20:17;;;;;;;25.90;16.57;;;;;;;;;;747816;184;644181;-60
2022/10/13 06:22:43;;;;;;;26.93;17.73;;;;;;;;;;741714;184;628006;-63
2022/10/13 06:25:09;;;;;;;33.53;20.43;;;;;;;;;;745694;187;616808;-64
2022/10/13 06:27:35;;;;;;;41.73;31.07;;;;;;;;;;745994;186;918012;-60
2022/10/13 06:30:02;;;;;;;21.30;15.37;;;;;;;;;;741214;185;919330;-64
2022/10/13 06:32:27;;;;;;;21.30;13.33;;;;;;;;;;748567;184;630867;-64
2022/10/13 06:34:52;;;;;;;23.13;15.53;;;;;;;;;;750143;186;629514;-64
2022/10/13 06:37:19;;;;;;;20.23;14.37;;;;;;;;;;746768;187;893347;-64
2022/10/13 06:39:45;;;;;;;24.83;16.27;;;;;;;;;;744287;187;918391;-63
2022/10/13 06:42:11;;;;;;;20.40;13.23;;;;;;;;;;742842;186;919835;-63
2022/10/13 06:44:37;;;;;;;21.63;13.33;;;;;;;;;;748052;186;860168;-64
2022/10/13 06:47:02;;;;;;;21.63;15.20;;;;;;;;;;747876;187;623899;-64
2022/10/13 06:49:28;;;;;;;23.23;14.43;;;;;;;;;;741964;187;815848;-63
2022/10/13 06:51:54;;;;;;;21.67;13.80;;;;;;;;;;746582;187;816377;-60
2022/10/13 06:54:20;;;;;;;16.00;11.07;;;;;;;;;;744891;185;810673;-63
2022/10/13 06:56:46;;;;;;;15.17;9.40;;;;;;;;;;746264;186;811043;-64
2022/10/13 06:59:12;;;;;;;19.50;12.43;;;;;;;;;;749936;187;815046;-59
2022/10/13 07:01:38;;;;;;;21.50;10.50;;;;;;;;;;746812;185;705426;-64
2022/10/13 07:04:03;;;;;;;18.33;11.80;;;;;;;;;;745311;185;938085;-64
2022/10/13 07:06:30;;;;;;;23.20;12.87;;;;;;;;;;746043;187;946944;-60
2022/10/13 07:08:56;;;;;;;16.50;11.67;;;;;;;;;;751197;186;905140;-63
2022/10/13 07:11:22;;;;;;;16.93;11.80;;;;;;;;;;744641;186;919585;-59
2022/10/13 07:13:47;;;;;;;15.90;10.30;;;;;;;;;;746741;184;642291;-59
2022/10/13 07:16:13;;;;;;;17.00;10.80;;;;;;;;;;751038;187;625462;-59
2022/10/13 07:18:39;;;;;;;19.23;11.37;;;;;;;;;;746194;187;623693;-64
2022/10/13 07:21:05;;;;;;;16.33;12.10;;;;;;;;;;745539;187;622075;-64
2022/10/13 07:23:31;;;;;;;15.10;11.43;;;;;;;;;;751513;186;628216;-60
2022/10/13 07:25:57;;;;;;;14.50;10.50;;;;;;;;;;736861;186;912989;-60
2022/10/13 07:28:23;;;;;;;19.73;11.07;;;;;;;;;;746043;185;870592;-59
2022/10/13 07:30:49;;;;;;;14.13;9.77;;;;;;;;;;746014;187;917610;-60
2022/10/13 07:33:15;;;;;;;17.57;10.50;;;;;;;;;;742811;187;918863;-59
2022/10/13 07:35:41;;;;;;;16.23;10.20;;;;;;;;;;743072;187;913889;-63
2022/10/13 07:38:07;;;;;;;16.73;10.40;;;;;;;;;;742782;187;816380;-63
2022/10/13 07:40:32;;;;;;;11.23;8.73;;;;;;;;;;746260;185;922876;-63
2022/10/13 07:42:59;;;;;;;14.50;9.43;;;;;;;;;;740733;187;919664;-59
2022/10/13 07:45:24;;;;;;;19.50;10.10;;;;;;;;;;741990;186;918090;-60
2022/10/13 07:47:50;;;;;;;13.90;10.53;;;;;;;;;;745973;186;919713;-59
2022/10/13 07:50:16;;;;;;;15.70;11.70;;;;;;;;;;744550;186;919089;-62
2022/10/13 07:52:42;;;;;;;15.10;11.37;;;;;;;;;;743634;187;919715;-60
2022/10/13 07:55:08;;;;;;;20.67;9.40;;;;;;;;;;745280;187;924706;-60
2022/10/13 07:57:34;;;;;;;14.50;10.50;;;;;;;;;;742693;186;920626;-64
2022/10/13 08:00:00;;;;;;;15.90;9.87;;;;;;;;;;742601;187;919137;-60
2022/10/13 08:02:25;;;;;;;16.43;10.47;;;;;;;;;;742463;187;816576;-60
2022/10/13 08:04:51;;;;;;;15.87;10.87;;;;;;;;;;748962;186;922554;-64
2022/10/13 08:07:17;;;;;;;18.13;10.50;;;;;;;;;;742788;186;919700;-64
2022/10/13 08:09:43;;;;;;;13.83;9.13;;;;;;;;;;742730;186;912317;-64
2022/10/13 08:12:09;;;;;;;15.20;10.33;;;;;;;;;;750452;186;811282;-59
2022/10/13 08:14:35;;;;;;;19.03;10.40;;;;;;;;;;745778;184;915231;-59
2022/10/13 08:17:00;;;;;;;17.20;9.67;;;;;;;;;;743690;186;914880;-60
2022/10/13 08:19:27;;;;;;;21.93;10.77;;;;;;;;;;746976;187;917589;-58
2022/10/13 08:21:52;;;;;;;13.20;9.00;;;;;;;;;;740612;186;918742;-59
2022/10/13 08:24:18;;;;;;;16.43;8.63;;;;;;;;;;741903;185;815818;-60
2022/10/13 08:26:45;;;;;;;15.50;9.70;;;;;;;;;;747767;184;916227;-63
2022/10/13 08:29:10;;;;;;;15.57;9.83;;;;;;;;;;752658;185;875533;-65
2022/10/13 08:31:37;;;;;;;15.07;9.63;;;;;;;;;;742103;188;908845;-61
2022/10/13 08:34:03;;;;;;;19.70;11.00;;;;;;;;;;742839;186;919266;-64
2022/10/13 08:36:29;;;;;;;16.80;10.60;;;;;;;;;;746187;187;917915;-58
2022/10/13 08:38:55;;;;;;;15.33;10.47;;;;;;;;;;741538;187;919310;-60
2022/10/13 08:41:22;;;;;;;12.90;9.50;;;;;;;;;;740654;185;922157;-65
2022/10/13 08:43:49;;;;;;;17.13;10.37;;;;;;;;;;747623;187;814543;-60
2022/10/13 08:46:14;;;;;;;17.10;10.43;;;;;;;;;;748172;187;621740;-64
2022/10/13 08:48:40;;;;;;;14.20;9.50;;;;;;;;;;750490;186;614819;-64
2022/10/13 08:51:06;;;;;;;18.57;10.83;;;;;;;;;;739876;187;919524;-59
2022/10/13 08:53:32;;;;;;;16.20;9.80;;;;;;;;;;755174;182;918850;-60
2022/10/13 08:56:00;;;;;;;15.63;10.57;;;;;;;;;;736839;187;912345;-60
2022/10/13 08:58:27;;;;;;;13.53;9.67;;;;;;;;;;741379;186;924073;-59
2022/10/13 09:01:00;;;;;;;14.82;9.70;;;;;;;;;;745817;187;915302;-60
2022/10/13 09:03:26;;;;;;;13.30;9.30;;;;;;;;;;752824;186;894250;-60
2022/10/13 09:05:53;;;;;;;19.98;10.70;;;;;;;;;;740844;186;812633;-64
2022/10/13 09:08:19;;;;;;;16.60;9.57;;;;;;;;;;739143;186;914220;-64
2022/10/13 09:10:48;;;;;;;13.03;9.90;;;;;;;;;;749685;186;816783;-64
2022/10/13 09:13:14;;;;;;;16.87;11.50;;;;;;;;;;744470;186;911239;-60
2022/10/13 09:15:43;;;;;;;17.70;9.60;;;;;;;;;;744998;186;911365;-64
2022/10/13 09:18:09;;;;;;;16.90;9.90;;;;;;;;;;743068;186;914427;-64
2022/10/13 09:20:35;;;;;;;15.60;10.10;;;;;;;;;;749843;185;848650;-67
2022/10/13 09:23:01;;;;;;;16.10;10.37;;;;;;;;;;744883;186;895752;-64
2022/10/13 09:25:26;;;;;;;17.03;10.67;;;;;;;;;;744397;186;912208;-60
2022/10/13 09:27:52;;;;;;;12.73;10.70;;;;;;;;;;747321;187;918827;-64
2022/10/13 09:30:33;;;;;;;21.43;11.77;;;;;;;;;;742236;186;939019;-65
2022/10/13 09:33:19;;;;;;;12.90;8.87;;;;;;;;;;740829;187;918438;-59
2022/10/13 09:35:44;;;;;;;15.17;9.33;;;;;;;;;;740674;186;921853;-61
2022/10/13 09:38:12;;;;;;;15.10;10.37;;;;;;;;;;744495;186;814058;-67
2022/10/13 09:40:39;;;;;;;14.87;9.57;;;;;;;;;;748278;186;915711;-60
2022/10/13 09:43:04;;;;;;;12.97;9.37;;;;;;;;;;744768;187;846477;-67
2022/10/13 09:45:30;;;;;;;18.20;10.20;;;;;;;;;;745272;187;637727;-65
2022/10/13 09:47:56;;;;;;;17.60;10.67;;;;;;;;;;745479;186;900548;-66
2022/10/13 09:50:22;;;;;;;12.50;8.23;;;;;;;;;;751625;186;627471;-65
2022/10/13 09:52:48;;;;;;;11.93;8.37;;;;;;;;;;746345;186;625883;-67
2022/10/13 09:55:20;;;;;;;12.30;8.70;;;;;;;;;;746455;184;763218;-61
2022/10/13 09:57:45;;;;;;;14.20;10.40;;;;;;;;;;748964;187;712543;-61
2022/10/13 10:00:18;;;;;;;12.33;8.87;;;;;;;;;;742731;187;705570;-63
2022/10/13 10:02:44;;;;;;;12.40;9.50;;;;;;;;;;746460;187;622880;-61
2022/10/13 10:05:15;;;;;;;14.10;8.63;;;;;;;;;;746229;187;623416;-62
2022/10/13 10:07:40;;;;;;;17.27;7.70;;;;;;;;;;751073;187;630292;-62
2022/10/13 10:10:08;;;;;;;11.87;8.47;;;;;;;;;;745086;185;815844;-61
2022/10/13 10:12:35;;;;;;;17.87;9.18;;;;;;;;;;741527;187;919244;-61
2022/10/13 10:14:59;;;;;;;20.13;8.70;;;;;;;;;;739002;187;916075;-62
2022/10/13 10:17:25;;;;;;;11.97;8.83;;;;;;;;;;745777;187;915026;-61
2022/10/13 10:20:10;;;;;;;11.00;8.07;;;;;;;;;;745060;185;919853;-61
2022/10/13 10:22:36;;;;;;;10.73;9.20;;;;;;;;;;749187;183;915480;-61
2022/10/13 10:25:03;;;;;;;11.77;8.70;;;;;;;;;;741603;187;919594;-66
2022/10/13 10:27:30;;;;;;;12.20;9.00;;;;;;;;;;747577;187;920649;-66
2022/10/13 10:29:58;;;;;;;15.23;10.37;;;;;;;;;;733412;187;919489;-60
2022/10/13 10:32:25;;;;;;;21.50;11.07;;;;;;;;;;744024;186;923423;-66
2022/10/13 10:34:51;;;;;;;20.57;11.93;;;;;;;;;;742981;186;917633;-61
2022/10/13 10:37:18;;;;;;;16.97;11.10;;;;;;;;;;746912;185;816522;-60
2022/10/13 10:39:47;;;;;;;18.70;11.27;;;;;;;;;;741929;187;857712;-61
2022/10/13 10:42:19;;;;;;;15.97;11.43;;;;;;;;;;743964;187;922768;-61
2022/10/13 10:44:46;;;;;;;15.10;10.50;;;;;;;;;;743756;187;919670;-66
2022/10/13 10:47:14;;;;;;;16.10;12.40;;;;;;;;;;745577;187;893808;-67
2022/10/13 10:49:41;;;;;;;15.23;12.00;;;;;;;;;;740776;186;918845;-61
2022/10/13 10:52:08;;;;;;;17.47;12.40;;;;;;;;;;741296;187;915658;-66
2022/10/13 10:54:38;;;;;;;23.30;13.43;;;;;;;;;;748655;186;918856;-66
2022/10/13 10:57:06;;;;;;;22.80;14.00;;;;;;;;;;750764;187;918867;-61
2022/10/13 10:59:39;;;;;;;18.27;14.03;;;;;;;;;;740679;187;920812;-61
2022/10/13 11:02:16;;;;;;;18.30;13.25;;;;;;;;;;739169;187;918565;-60
2022/10/13 11:04:44;;;;;;;21.07;13.47;;;;;;;;;;741312;187;920213;-60
2022/10/13 11:07:11;;;;;;;18.03;12.70;;;;;;;;;;748178;185;918720;-66
2022/10/13 11:09:56;;;;;;;16.83;12.67;;;;;;;;;;744656;186;916825;-66
2022/10/13 11:12:23;;;;;;;20.30;13.70;;;;;;;;;;746626;187;922164;-60
2022/10/13 11:15:07;;;;;;;15.90;12.80;;;;;;;;;;740539;187;919116;-62
2022/10/13 11:17:32;;;;;;;17.03;13.27;;;;;;;;;;737905;186;929965;-66
2022/10/13 11:19:59;;;;;;;16.50;13.03;;;;;;;;;;745578;185;918887;-66
2022/10/13 11:22:24;;;;;;;19.97;14.10;;;;;;;;;;745349;185;918710;-59
2022/10/13 11:24:50;;;;;;;22.93;15.60;;;;;;;;;;742361;186;918632;-62
2022/10/13 11:27:31;;;;;;;21.50;13.00;;;;;;;;;;741364;186;918083;-60
2022/10/13 11:29:57;;;;;;;22.93;14.93;;;;;;;;;;739274;187;923085;-60
2022/10/13 11:32:40;;;;;;;21.40;14.27;;;;;;;;;;746441;186;919333;-60
2022/10/13 11:35:21;;;;;;;19.40;13.80;;;;;;;;;;751351;185;914930;-65
2022/10/13 11:38:01;;;;;;;20.73;15.50;;;;;;;;;;748789;186;921585;-66
2022/10/13 11:40:30;;;;;;;20.80;15.10;;;;;;;;;;751508;183;915871;-59
2022/10/13 11:42:57;;;;;;;21.03;14.03;;;;;;;;;;745338;187;816192;-60
2022/10/13 11:45:29;;;;;;;23.63;15.60;;;;;;;;;;742805;187;820121;-59
2022/10/13 11:47:56;;;;;;;25.23;15.67;;;;;;;;;;742203;183;816236;-65
2022/10/13 11:50:27;;;;;;;21.23;15.20;;;;;;;;;;751849;187;620428;-66
2022/10/13 11:52:54;;;;;;;19.10;14.00;;;;;;;;;;748452;184;715743;-60
2022/10/13 11:55:21;;;;;;;21.90;14.60;;;;;;;;;;745055;187;918676;-59
2022/10/13 11:57:46;;;;;;;21.70;15.37;;;;;;;;;;746480;187;623861;-60
2022/10/13 12:00:13;;;;;;;19.67;15.77;;;;;;;;;;747615;187;918701;-60
2022/10/13 12:02:38;;;;;;;20.40;16.67;;;;;;;;;;742971;184;914572;-65
2022/10/13 12:05:04;;;;;;;26.07;16.83;;;;;;;;;;740592;187;913226;-59
2022/10/13 12:07:31;;;;;;;20.93;16.70;;;;;;;;;;745653;185;940123;-60
2022/10/13 12:09:57;;;;;;;29.20;18.73;;;;;;;;;;741109;183;910055;-66
2022/10/13 12:12:23;;;;;;;18.23;14.80;;;;;;;;;;740517;187;902748;-60
2022/10/13 12:14:49;;;;;;;27.87;16.53;;;;;;;;;;742599;187;941229;-60
2022/10/13 12:17:20;;;;;;;19.57;16.80;;;;;;;;;;743224;185;777030;-60
2022/10/13 12:19:46;;;;;;;23.70;16.98;;;;;;;;;;742492;186;909958;-61
2022/10/13 12:22:12;;;;;;;26.07;17.07;;;;;;;;;;743666;184;614518;-60
2022/10/13 12:24:38;;;;;;;26.70;17.80;;;;;;;;;;750179;184;628540;-66
2022/10/13 12:27:14;;;;;;;30.60;19.00;;;;;;;;;;746119;185;622678;-65
2022/10/13 12:29:40;;;;;;;27.03;17.47;;;;;;;;;;745170;183;887562;-66
2022/10/13 12:32:11;;;;;;;21.17;17.25;;;;;;;;;;743600;186;918200;-60
2022/10/13 12:34:37;;;;;;;27.83;19.63;;;;;;;;;;747375;187;906085;-65
2022/10/13 12:37:04;;;;;;;24.67;18.23;;;;;;;;;;749214;186;865975;-60
2022/10/13 12:39:30;;;;;;;26.83;17.93;;;;;;;;;;746400;187;628780;-60
2022/10/13 12:41:56;;;;;;;21.97;17.63;;;;;;;;;;741902;184;918241;-66
2022/10/13 12:44:23;;;;;;;20.90;17.87;;;;;;;;;;746888;187;812985;-59
2022/10/13 12:46:51;;;;;;;22.60;16.60;;;;;;;;;;742023;187;918988;-59
2022/10/13 12:49:25;;;;;;;27.53;18.33;;;;;;;;;;742410;185;802732;-65
2022/10/13 12:51:52;;;;;;;31.40;17.50;;;;;;;;;;743338;186;816176;-60
2022/10/13 12:54:19;;;;;;;27.55;19.75;;;;;;;;;;749149;185;923174;-59
2022/10/13 12:56:44;;;;;;;26.47;17.57;;;;;;;;;;744120;185;816557;-66
2022/10/13 12:59:15;;;;;;;23.20;18.63;;;;;;;;;;741950;184;886975;-66
2022/10/13 13:01:41;;;;;;;26.77;20.00;;;;;;;;;;746165;186;917685;-65
2022/10/13 13:04:13;;;;;;;26.23;21.00;;;;;;;;;;745001;185;913757;-60
2022/10/13 13:06:39;;;;;;;28.30;18.43;;;;;;;;;;738309;187;919301;-59
2022/10/13 13:09:07;;;;;;;29.87;19.57;;;;;;;;;;741507;187;918514;-60
2022/10/13 13:11:34;;;;;;;22.75;18.70;;;;;;;;;;746175;187;941311;-60
2022/10/13 13:14:05;;;;;;;28.87;19.90;;;;;;;;;;743472;187;918944;-65
2022/10/13 13:16:31;;;;;;;27.50;19.13;;;;;;;;;;741512;186;920554;-59
2022/10/13 13:18:57;;;;;;;28.20;20.90;;;;;;;;;;739983;187;921781;-60
2022/10/13 13:21:22;;;;;;;32.13;19.47;;;;;;;;;;747185;187;819500;-60
2022/10/13 13:23:48;;;;;;;26.30;19.80;;;;;;;;;;743480;187;918064;-65
2022/10/13 13:26:15;;;;;;;29.73;19.47;;;;;;;;;;743130;186;919534;-65
2022/10/13 13:28:43;;;;;;;24.03;19.03;;;;;;;;;;744468;187;919388;-59
2022/10/13 13:31:08;;;;;;;25.40;19.50;;;;;;;;;;746674;187;918431;-59
2022/10/13 13:33:34;;;;;;;28.07;19.57;;;;;;;;;;742044;187;814844;-66
2022/10/13 13:36:00;;;;;;;24.70;18.17;;;;;;;;;;740930;186;919250;-60
2022/10/13 13:38:26;;;;;;;24.52;20.02;;;;;;;;;;746475;187;920391;-60
2022/10/13 13:40:52;;;;;;;25.83;20.50;;;;;;;;;;741621;187;921258;-66
2022/10/13 13:43:18;;;;;;;25.10;20.10;;;;;;;;;;743888;184;822330;-65
2022/10/13 13:45:44;;;;;;;24.90;18.73;;;;;;;;;;745548;187;918857;-60
2022/10/13 13:48:09;;;;;;;30.90;21.67;;;;;;;;;;745725;186;816122;-60
2022/10/13 13:50:35;;;;;;;27.83;20.03;;;;;;;;;;743614;187;913598;-59
2022/10/13 13:53:01;;;;;;;27.73;20.27;;;;;;;;;;748871;185;915718;-59
2022/10/13 13:55:28;;;;;;;29.03;20.80;;;;;;;;;;742359;185;820336;-65
2022/10/13 13:57:53;;;;;;;28.80;19.80;;;;;;;;;;741638;187;919737;-64
2022/10/13 14:00:19;;;;;;;28.80;20.10;;;;;;;;;;740510;186;923543;-60
2022/10/13 14:02:45;;;;;;;28.03;20.30;;;;;;;;;;751201;186;914478;-65
2022/10/13 14:05:11;;;;;;;32.80;19.90;;;;;;;;;;745104;186;864240;-65